sensor_id;sensor_type;location;lat;lon;timestamp;temperature;humidity
10536;DHT22;5316;49.538;8.352;2024-03-06T00:00:36;8.10;99.90
10536;DHT22;5316;49.538;8.352;2024-03-06T00:03:04;8.00;99.90
10536;DHT22;5316;49.538;8.352;2024-03-06T00:05:32;8.00;1.00
10536;DHT22;5316;49.538;8.352;2024-03-06T00:07:58;8.00;1.00
10536;DHT22;5316;49.538;8.352;2024-03-06T00:10:26;8.00;1.00
10536;DHT22;5316;49.538;8.352;2024-03-06T00:12:52;8.00;1.00
10536;DHT22;5316;49.538;8.352;2024-03-06T00:15:19;7.90;1.00
10536;DHT22;5316;49.538;8.352;2024-03-06T00:17:46;7.90;1.00
10536;DHT22;5316;49.538;8.352;2024-03-06T00:20:13;7.80;1.00
10536;DHT22;5316;49.538;8.352;2024-03-06T00:22:41;7.80;1.00
10536;DHT22;5316;49.538;8.352;2024-03-06T00:25:08;7.70;1.00
10536;DHT22;5316;49.538;8.352;2024-03-06T00:27:35;7.60;1.00
10536;DHT22;5316;49.538;8.352;2024-03-06T00:30:02;7.60;1.00
10536;DHT22;5316;49.538;8.352;2024-03-06T00:32:28;7.60;1.00
10536;DHT22;5316;49.538;8.352;2024-03-06T00:34:55;7.60;1.00
10536;DHT22;5316;49.538;8.352;2024-03-06T00:37:22;7.50;29.70
10536;DHT22;5316;49.538;8.352;2024-03-06T00:39:50;7.50;39.20
10536;DHT22;5316;49.538;8.352;2024-03-06T00:42:17;7.40;35.10
10536;DHT22;5316;49.538;8.352;2024-03-06T00:44:44;7.40;54.10
10536;DHT22;5316;49.538;8.352;2024-03-06T00:47:11;7.40;74.30
10536;DHT22;5316;49.538;8.352;2024-03-06T00:49:37;7.40;92.40
10536;DHT22;5316;49.538;8.352;2024-03-06T00:52:07;7.30;99.90
10536;DHT22;5316;49.538;8.352;2024-03-06T00:54:34;7.20;99.90
10536;DHT22;5316;49.538;8.352;2024-03-06T00:57:02;7.20;99.90
10536;DHT22;5316;49.538;8.352;2024-03-06T00:59:29;7.20;99.90
10536;DHT22;5316;49.538;8.352;2024-03-06T01:01:56;7.10;99.90
10536;DHT22;5316;49.538;8.352;2024-03-06T01:04:23;7.10;99.90
10536;DHT22;5316;49.538;8.352;2024-03-06T01:06:49;7.10;99.90
10536;DHT22;5316;49.538;8.352;2024-03-06T01:09:17;7.10;99.90
10536;DHT22;5316;49.538;8.352;2024-03-06T01:11:43;7.00;99.90
10536;DHT22;5316;49.538;8.352;2024-03-06T01:14:13;7.00;99.90
10536;DHT22;5316;49.538;8.352;2024-03-06T01:16:40;7.00;99.90
10536;DHT22;5316;49.538;8.352;2024-03-06T01:19:07;7.10;99.90
10536;DHT22;5316;49.538;8.352;2024-03-06T01:21:33;7.10;99.90
10536;DHT22;5316;49.538;8.352;2024-03-06T01:24:00;7.10;99.90
10536;DHT22;5316;49.538;8.352;2024-03-06T01:26:27;7.10;99.90
10536;DHT22;5316;49.538;8.352;2024-03-06T01:28:54;7.10;99.90
10536;DHT22;5316;49.538;8.352;2024-03-06T01:31:22;7.10;99.90
10536;DHT22;5316;49.538;8.352;2024-03-06T01:33:49;7.20;99.90
10536;DHT22;5316;49.538;8.352;2024-03-06T01:36:15;7.10;99.90
10536;DHT22;5316;49.538;8.352;2024-03-06T01:38:42;7.10;99.90
10536;DHT22;5316;49.538;8.352;2024-03-06T01:41:11;7.10;99.90
10536;DHT22;5316;49.538;8.352;2024-03-06T01:43:38;7.10;99.90
10536;DHT22;5316;49.538;8.352;2024-03-06T01:46:05;7.00;99.90
10536;DHT22;5316;49.538;8.352;2024-03-06T01:48:34;7.00;99.90
10536;DHT22;5316;49.538;8.352;2024-03-06T01:51:02;7.00;99.90
10536;DHT22;5316;49.538;8.352;2024-03-06T01:53:31;6.90;99.90
10536;DHT22;5316;49.538;8.352;2024-03-06T01:55:59;6.80;99.90
10536;DHT22;5316;49.538;8.352;2024-03-06T01:58:26;6.80;99.90
10536;DHT22;5316;49.538;8.352;2024-03-06T02:00:54;6.70;99.90
10536;DHT22;5316;49.538;8.352;2024-03-06T02:03:20;6.70;99.90
10536;DHT22;5316;49.538;8.352;2024-03-06T02:05:49;6.60;99.90
10536;DHT22;5316;49.538;8.352;2024-03-06T02:08:17;6.50;99.90
10536;DHT22;5316;49.538;8.352;2024-03-06T02:10:44;6.50;99.90
10536;DHT22;5316;49.538;8.352;2024-03-06T02:13:12;6.50;99.90
10536;DHT22;5316;49.538;8.352;2024-03-06T02:15:40;6.40;99.90
10536;DHT22;5316;49.538;8.352;2024-03-06T02:18:07;6.40;99.90
10536;DHT22;5316;49.538;8.352;2024-03-06T02:20:37;6.30;99.90
10536;DHT22;5316;49.538;8.352;2024-03-06T02:23:04;6.30;99.90
10536;DHT22;5316;49.538;8.352;2024-03-06T02:25:31;6.20;99.90
10536;DHT22;5316;49.538;8.352;2024-03-06T02:27:58;6.20;99.90
10536;DHT22;5316;49.538;8.352;2024-03-06T02:30:25;6.10;99.90
10536;DHT22;5316;49.538;8.352;2024-03-06T02:32:51;6.10;99.90
10536;DHT22;5316;49.538;8.352;2024-03-06T02:35:18;6.10;99.90
10536;DHT22;5316;49.538;8.352;2024-03-06T02:37:46;6.10;99.90
10536;DHT22;5316;49.538;8.352;2024-03-06T02:40:13;6.00;99.90
10536;DHT22;5316;49.538;8.352;2024-03-06T02:42:40;6.00;99.90
10536;DHT22;5316;49.538;8.352;2024-03-06T02:45:07;6.00;99.90
10536;DHT22;5316;49.538;8.352;2024-03-06T02:47:34;6.00;99.90
10536;DHT22;5316;49.538;8.352;2024-03-06T02:50:01;5.90;99.90
10536;DHT22;5316;49.538;8.352;2024-03-06T02:52:28;5.90;99.90
10536;DHT22;5316;49.538;8.352;2024-03-06T02:54:56;5.90;99.90
10536;DHT22;5316;49.538;8.352;2024-03-06T02:57:26;5.90;99.90
10536;DHT22;5316;49.538;8.352;2024-03-06T02:59:52;6.00;99.90
10536;DHT22;5316;49.538;8.352;2024-03-06T03:02:19;6.00;99.90
10536;DHT22;5316;49.538;8.352;2024-03-06T03:04:46;6.00;99.90
10536;DHT22;5316;49.538;8.352;2024-03-06T03:07:13;6.00;99.90
10536;DHT22;5316;49.538;8.352;2024-03-06T03:09:39;6.10;99.90
10536;DHT22;5316;49.538;8.352;2024-03-06T03:12:07;6.10;99.90
10536;DHT22;5316;49.538;8.352;2024-03-06T03:14:34;6.10;99.90
10536;DHT22;5316;49.538;8.352;2024-03-06T03:17:01;6.10;99.90
10536;DHT22;5316;49.538;8.352;2024-03-06T03:19:28;6.10;99.90
10536;DHT22;5316;49.538;8.352;2024-03-06T03:21:54;6.10;99.90
10536;DHT22;5316;49.538;8.352;2024-03-06T03:24:21;6.10;99.90
10536;DHT22;5316;49.538;8.352;2024-03-06T03:26:49;6.10;99.90
10536;DHT22;5316;49.538;8.352;2024-03-06T03:29:17;6.10;99.90
10536;DHT22;5316;49.538;8.352;2024-03-06T03:31:46;6.10;99.90
10536;DHT22;5316;49.538;8.352;2024-03-06T03:34:14;6.20;99.90
10536;DHT22;5316;49.538;8.352;2024-03-06T03:36:41;6.20;99.90
10536;DHT22;5316;49.538;8.352;2024-03-06T03:39:08;6.20;99.90
10536;DHT22;5316;49.538;8.352;2024-03-06T03:41:43;6.20;99.90
10536;DHT22;5316;49.538;8.352;2024-03-06T03:44:10;6.20;99.90
10536;DHT22;5316;49.538;8.352;2024-03-06T03:46:38;6.20;99.90
10536;DHT22;5316;49.538;8.352;2024-03-06T03:49:04;6.20;99.90
10536;DHT22;5316;49.538;8.352;2024-03-06T03:51:31;6.20;99.90
10536;DHT22;5316;49.538;8.352;2024-03-06T03:53:58;6.20;99.90
10536;DHT22;5316;49.538;8.352;2024-03-06T03:56:25;6.20;99.90
10536;DHT22;5316;49.538;8.352;2024-03-06T03:58:51;6.20;99.90
10536;DHT22;5316;49.538;8.352;2024-03-06T04:01:18;6.20;99.90
10536;DHT22;5316;49.538;8.352;2024-03-06T04:03:46;6.20;99.90
10536;DHT22;5316;49.538;8.352;2024-03-06T04:06:13;6.20;99.90
10536;DHT22;5316;49.538;8.352;2024-03-06T04:08:40;6.20;94.20
10536;DHT22;5316;49.538;8.352;2024-03-06T04:11:07;6.20;91.80
10536;DHT22;5316;49.538;8.352;2024-03-06T04:13:36;6.20;70.40
10536;DHT22;5316;49.538;8.352;2024-03-06T04:16:03;6.20;38.70
10536;DHT22;5316;49.538;8.352;2024-03-06T04:18:31;6.20;14.70
10536;DHT22;5316;49.538;8.352;2024-03-06T04:21:02;6.20;1.00
10536;DHT22;5316;49.538;8.352;2024-03-06T04:23:30;6.20;1.00
10536;DHT22;5316;49.538;8.352;2024-03-06T04:25:57;6.20;10.40
10536;DHT22;5316;49.538;8.352;2024-03-06T04:28:24;6.20;50.00
10536;DHT22;5316;49.538;8.352;2024-03-06T04:30:50;6.20;43.20
10536;DHT22;5316;49.538;8.352;2024-03-06T04:33:17;6.10;57.70
10536;DHT22;5316;49.538;8.352;2024-03-06T04:35:44;6.20;57.00
10536;DHT22;5316;49.538;8.352;2024-03-06T04:38:12;6.20;6.00
10536;DHT22;5316;49.538;8.352;2024-03-06T04:40:39;6.20;27.30
10536;DHT22;5316;49.538;8.352;2024-03-06T04:43:06;6.20;47.40
10536;DHT22;5316;49.538;8.352;2024-03-06T04:45:33;6.10;76.70
10536;DHT22;5316;49.538;8.352;2024-03-06T04:48:00;6.10;94.50
10536;DHT22;5316;49.538;8.352;2024-03-06T04:50:27;6.10;99.90
10536;DHT22;5316;49.538;8.352;2024-03-06T04:52:53;6.10;99.90
10536;DHT22;5316;49.538;8.352;2024-03-06T04:55:23;6.10;99.90
10536;DHT22;5316;49.538;8.352;2024-03-06T04:57:51;6.10;99.90
10536;DHT22;5316;49.538;8.352;2024-03-06T05:00:18;6.10;99.90
10536;DHT22;5316;49.538;8.352;2024-03-06T05:02:45;6.10;99.90
10536;DHT22;5316;49.538;8.352;2024-03-06T05:05:11;6.10;99.90
10536;DHT22;5316;49.538;8.352;2024-03-06T05:07:38;6.10;99.90
10536;DHT22;5316;49.538;8.352;2024-03-06T05:10:06;6.10;99.90
10536;DHT22;5316;49.538;8.352;2024-03-06T05:12:35;6.10;99.90
10536;DHT22;5316;49.538;8.352;2024-03-06T05:15:02;6.10;99.90
10536;DHT22;5316;49.538;8.352;2024-03-06T05:17:29;6.00;99.90
10536;DHT22;5316;49.538;8.352;2024-03-06T05:19:56;6.00;99.90
10536;DHT22;5316;49.538;8.352;2024-03-06T05:22:23;6.00;99.90
10536;DHT22;5316;49.538;8.352;2024-03-06T05:24:49;6.00;93.10
10536;DHT22;5316;49.538;8.352;2024-03-06T05:27:16;6.00;27.40
10536;DHT22;5316;49.538;8.352;2024-03-06T05:29:44;6.00;77.80
10536;DHT22;5316;49.538;8.352;2024-03-06T05:32:11;6.00;99.90
10536;DHT22;5316;49.538;8.352;2024-03-06T05:34:38;6.00;99.90
10536;DHT22;5316;49.538;8.352;2024-03-06T05:37:05;6.00;99.90
10536;DHT22;5316;49.538;8.352;2024-03-06T05:39:32;6.00;99.90
10536;DHT22;5316;49.538;8.352;2024-03-06T05:42:02;6.00;90.40
10536;DHT22;5316;49.538;8.352;2024-03-06T05:44:29;6.00;94.50
10536;DHT22;5316;49.538;8.352;2024-03-06T05:46:59;6.00;53.50
10536;DHT22;5316;49.538;8.352;2024-03-06T05:49:26;5.90;53.20
10536;DHT22;5316;49.538;8.352;2024-03-06T05:51:53;5.90;50.80
10536;DHT22;5316;49.538;8.352;2024-03-06T05:54:20;5.80;68.10
10536;DHT22;5316;49.538;8.352;2024-03-06T05:56:48;5.80;98.50
10536;DHT22;5316;49.538;8.352;2024-03-06T05:59:15;5.80;97.90
10536;DHT22;5316;49.538;8.352;2024-03-06T06:01:42;5.90;79.60
10536;DHT22;5316;49.538;8.352;2024-03-06T06:04:11;5.90;99.90
10536;DHT22;5316;49.538;8.352;2024-03-06T06:06:39;5.90;99.90
10536;DHT22;5316;49.538;8.352;2024-03-06T06:09:06;5.90;92.30
10536;DHT22;5316;49.538;8.352;2024-03-06T06:11:38;5.90;79.50
10536;DHT22;5316;49.538;8.352;2024-03-06T06:14:05;5.90;63.70
10536;DHT22;5316;49.538;8.352;2024-03-06T06:16:35;5.90;37.00
10536;DHT22;5316;49.538;8.352;2024-03-06T06:19:02;5.90;46.50
10536;DHT22;5316;49.538;8.352;2024-03-06T06:21:30;5.90;36.80
10536;DHT22;5316;49.538;8.352;2024-03-06T06:23:57;5.90;67.60
10536;DHT22;5316;49.538;8.352;2024-03-06T06:26:24;5.90;67.20
10536;DHT22;5316;49.538;8.352;2024-03-06T06:28:50;5.90;50.00
10536;DHT22;5316;49.538;8.352;2024-03-06T06:31:17;6.00;62.80
10536;DHT22;5316;49.538;8.352;2024-03-06T06:33:44;5.90;84.60
10536;DHT22;5316;49.538;8.352;2024-03-06T06:36:11;6.00;91.60
10536;DHT22;5316;49.538;8.352;2024-03-06T06:38:39;6.00;91.70
10536;DHT22;5316;49.538;8.352;2024-03-06T06:41:06;6.00;96.00
10536;DHT22;5316;49.538;8.352;2024-03-06T06:43:32;6.10;58.00
10536;DHT22;5316;49.538;8.352;2024-03-06T06:45:59;6.10;1.00
10536;DHT22;5316;49.538;8.352;2024-03-06T06:48:26;6.10;8.20
10536;DHT22;5316;49.538;8.352;2024-03-06T06:50:53;6.10;1.00
10536;DHT22;5316;49.538;8.352;2024-03-06T06:53:20;6.10;1.00
10536;DHT22;5316;49.538;8.352;2024-03-06T06:55:48;6.10;1.00
10536;DHT22;5316;49.538;8.352;2024-03-06T06:58:15;6.10;1.00
10536;DHT22;5316;49.538;8.352;2024-03-06T07:00:41;6.10;1.00
10536;DHT22;5316;49.538;8.352;2024-03-06T07:03:08;6.10;13.50
10536;DHT22;5316;49.538;8.352;2024-03-06T07:05:35;6.20;1.00
10536;DHT22;5316;49.538;8.352;2024-03-06T07:08:03;6.30;1.00
10536;DHT22;5316;49.538;8.352;2024-03-06T07:10:29;6.30;1.00
10536;DHT22;5316;49.538;8.352;2024-03-06T07:12:57;6.40;1.00
10536;DHT22;5316;49.538;8.352;2024-03-06T07:15:24;6.40;1.00
10536;DHT22;5316;49.538;8.352;2024-03-06T07:17:51;6.50;1.00
10536;DHT22;5316;49.538;8.352;2024-03-06T07:20:17;6.60;1.00
10536;DHT22;5316;49.538;8.352;2024-03-06T07:22:44;6.60;1.00
10536;DHT22;5316;49.538;8.352;2024-03-06T07:25:11;6.70;99.90
10536;DHT22;5316;49.538;8.352;2024-03-06T07:27:37;6.70;99.90
10536;DHT22;5316;49.538;8.352;2024-03-06T07:30:07;6.80;99.90
10536;DHT22;5316;49.538;8.352;2024-03-06T07:32:34;6.80;99.90
10536;DHT22;5316;49.538;8.352;2024-03-06T07:35:01;6.90;99.90
10536;DHT22;5316;49.538;8.352;2024-03-06T07:37:27;6.90;43.40
10536;DHT22;5316;49.538;8.352;2024-03-06T07:39:54;7.00;1.00
10536;DHT22;5316;49.538;8.352;2024-03-06T07:42:21;7.00;1.00
10536;DHT22;5316;49.538;8.352;2024-03-06T07:44:47;7.00;1.00
10536;DHT22;5316;49.538;8.352;2024-03-06T07:47:15;7.00;1.00
10536;DHT22;5316;49.538;8.352;2024-03-06T07:49:42;7.00;1.00
10536;DHT22;5316;49.538;8.352;2024-03-06T07:52:10;7.00;1.00
10536;DHT22;5316;49.538;8.352;2024-03-06T07:54:36;7.10;27.20
10536;DHT22;5316;49.538;8.352;2024-03-06T07:57:05;7.10;99.90
10536;DHT22;5316;49.538;8.352;2024-03-06T07:59:31;7.20;99.90
10536;DHT22;5316;49.538;8.352;2024-03-06T08:01:58;7.20;92.50
10536;DHT22;5316;49.538;8.352;2024-03-06T08:04:26;7.20;4.00
10536;DHT22;5316;49.538;8.352;2024-03-06T08:06:53;7.30;44.50
10536;DHT22;5316;49.538;8.352;2024-03-06T08:09:19;7.20;99.90
10536;DHT22;5316;49.538;8.352;2024-03-06T08:11:46;7.30;40.30
10536;DHT22;5316;49.538;8.352;2024-03-06T08:14:13;7.30;99.90
10536;DHT22;5316;49.538;8.352;2024-03-06T08:16:40;7.40;76.70
10536;DHT22;5316;49.538;8.352;2024-03-06T08:19:07;7.40;99.90
10536;DHT22;5316;49.538;8.352;2024-03-06T08:21:36;7.50;94.70
10536;DHT22;5316;49.538;8.352;2024-03-06T08:24:03;7.60;1.00
10536;DHT22;5316;49.538;8.352;2024-03-06T08:26:30;7.60;99.90
10536;DHT22;5316;49.538;8.352;2024-03-06T08:28:57;7.70;99.90
10536;DHT22;5316;49.538;8.352;2024-03-06T08:31:23;7.80;1.00
10536;DHT22;5316;49.538;8.352;2024-03-06T08:33:50;7.90;1.00
10536;DHT22;5316;49.538;8.352;2024-03-06T08:36:18;8.00;99.90
10536;DHT22;5316;49.538;8.352;2024-03-06T08:38:48;8.10;1.00
10536;DHT22;5316;49.538;8.352;2024-03-06T08:41:14;8.10;1.00
10536;DHT22;5316;49.538;8.352;2024-03-06T08:43:41;8.30;1.00
10536;DHT22;5316;49.538;8.352;2024-03-06T08:46:08;8.40;1.00
10536;DHT22;5316;49.538;8.352;2024-03-06T08:48:34;8.50;64.60
10536;DHT22;5316;49.538;8.352;2024-03-06T08:51:01;8.50;99.90
10536;DHT22;5316;49.538;8.352;2024-03-06T08:53:28;8.60;22.80
10536;DHT22;5316;49.538;8.352;2024-03-06T08:55:56;8.80;17.90
10536;DHT22;5316;49.538;8.352;2024-03-06T08:58:23;8.90;1.00
10536;DHT22;5316;49.538;8.352;2024-03-06T09:00:50;9.00;99.90
10536;DHT22;5316;49.538;8.352;2024-03-06T09:03:16;9.00;1.00
10536;DHT22;5316;49.538;8.352;2024-03-06T09:05:43;9.00;1.00
10536;DHT22;5316;49.538;8.352;2024-03-06T09:08:10;9.00;99.90
10536;DHT22;5316;49.538;8.352;2024-03-06T09:10:37;8.90;99.90
10536;DHT22;5316;49.538;8.352;2024-03-06T09:13:05;9.00;99.90
10536;DHT22;5316;49.538;8.352;2024-03-06T09:15:33;9.00;1.00
10536;DHT22;5316;49.538;8.352;2024-03-06T09:17:59;9.00;99.90
10536;DHT22;5316;49.538;8.352;2024-03-06T09:20:26;9.10;32.20
10536;DHT22;5316;49.538;8.352;2024-03-06T09:22:52;9.10;99.90
10536;DHT22;5316;49.538;8.352;2024-03-06T09:25:22;9.20;99.90
10536;DHT22;5316;49.538;8.352;2024-03-06T09:27:49;9.20;83.90
10536;DHT22;5316;49.538;8.352;2024-03-06T09:30:17;9.30;1.00
10536;DHT22;5316;49.538;8.352;2024-03-06T09:32:43;9.30;99.90
10536;DHT22;5316;49.538;8.352;2024-03-06T09:35:10;9.30;99.90
10536;DHT22;5316;49.538;8.352;2024-03-06T09:37:49;9.40;1.00
10536;DHT22;5316;49.538;8.352;2024-03-06T09:40:23;9.40;99.90
10536;DHT22;5316;49.538;8.352;2024-03-06T09:42:50;9.40;99.90
10536;DHT22;5316;49.538;8.352;2024-03-06T09:45:18;9.40;1.00
10536;DHT22;5316;49.538;8.352;2024-03-06T09:47:47;9.40;1.00
10536;DHT22;5316;49.538;8.352;2024-03-06T09:50:16;9.40;1.00
10536;DHT22;5316;49.538;8.352;2024-03-06T09:52:46;9.50;1.00
10536;DHT22;5316;49.538;8.352;2024-03-06T09:55:16;9.50;1.00
10536;DHT22;5316;49.538;8.352;2024-03-06T09:57:43;9.50;1.00
10536;DHT22;5316;49.538;8.352;2024-03-06T10:00:10;9.40;1.00
10536;DHT22;5316;49.538;8.352;2024-03-06T10:02:46;9.50;1.00
10536;DHT22;5316;49.538;8.352;2024-03-06T10:05:22;9.50;33.50
10536;DHT22;5316;49.538;8.352;2024-03-06T10:07:50;9.50;96.10
10536;DHT22;5316;49.538;8.352;2024-03-06T10:10:18;9.60;20.30
10536;DHT22;5316;49.538;8.352;2024-03-06T10:12:45;9.60;1.00
10536;DHT22;5316;49.538;8.352;2024-03-06T10:15:13;9.60;17.90
10536;DHT22;5316;49.538;8.352;2024-03-06T10:17:41;9.70;1.00
10536;DHT22;5316;49.538;8.352;2024-03-06T10:20:26;9.70;1.00
10536;DHT22;5316;49.538;8.352;2024-03-06T10:22:54;9.80;1.00
10536;DHT22;5316;49.538;8.352;2024-03-06T10:25:21;9.90;1.00
10536;DHT22;5316;49.538;8.352;2024-03-06T10:28:03;10.00;1.00
10536;DHT22;5316;49.538;8.352;2024-03-06T10:30:30;10.10;1.00
10536;DHT22;5316;49.538;8.352;2024-03-06T10:32:59;10.20;99.90
10536;DHT22;5316;49.538;8.352;2024-03-06T10:35:26;10.30;99.90
10536;DHT22;5316;49.538;8.352;2024-03-06T10:37:54;10.30;99.90
10536;DHT22;5316;49.538;8.352;2024-03-06T10:40:23;10.40;99.90
10536;DHT22;5316;49.538;8.352;2024-03-06T10:42:50;10.50;99.90
10536;DHT22;5316;49.538;8.352;2024-03-06T10:45:18;10.60;94.40
10536;DHT22;5316;49.538;8.352;2024-03-06T10:47:48;10.70;99.90
10536;DHT22;5316;49.538;8.352;2024-03-06T10:50:18;10.80;1.00
10536;DHT22;5316;49.538;8.352;2024-03-06T10:52:47;10.80;1.00
10536;DHT22;5316;49.538;8.352;2024-03-06T10:55:15;10.90;1.00
10536;DHT22;5316;49.538;8.352;2024-03-06T10:57:43;10.90;1.00
10536;DHT22;5316;49.538;8.352;2024-03-06T11:00:13;10.90;99.90
10536;DHT22;5316;49.538;8.352;2024-03-06T11:02:46;10.90;99.90
10536;DHT22;5316;49.538;8.352;2024-03-06T11:05:16;11.00;99.90
10536;DHT22;5316;49.538;8.352;2024-03-06T11:07:43;11.00;99.90
10536;DHT22;5316;49.538;8.352;2024-03-06T11:10:10;11.00;99.90
10536;DHT22;5316;49.538;8.352;2024-03-06T11:12:42;11.10;99.90
10536;DHT22;5316;49.538;8.352;2024-03-06T11:15:14;11.20;99.90
10536;DHT22;5316;49.538;8.352;2024-03-06T11:17:41;11.30;99.90
10536;DHT22;5316;49.538;8.352;2024-03-06T11:20:09;11.40;85.20
10536;DHT22;5316;49.538;8.352;2024-03-06T11:23:03;11.40;67.30
10536;DHT22;5316;49.538;8.352;2024-03-06T11:26:03;11.40;48.30
10536;DHT22;5316;49.538;8.352;2024-03-06T11:28:31;11.50;57.70
10536;DHT22;5316;49.538;8.352;2024-03-06T11:30:59;11.60;1.00
10536;DHT22;5316;49.538;8.352;2024-03-06T11:33:36;11.70;1.00
10536;DHT22;5316;49.538;8.352;2024-03-06T11:36:17;11.70;1.00
10536;DHT22;5316;49.538;8.352;2024-03-06T11:38:52;11.70;1.00
10536;DHT22;5316;49.538;8.352;2024-03-06T11:41:20;11.60;1.00
10536;DHT22;5316;49.538;8.352;2024-03-06T11:43:48;11.60;1.00
10536;DHT22;5316;49.538;8.352;2024-03-06T11:46:18;11.60;1.00
10536;DHT22;5316;49.538;8.352;2024-03-06T11:48:52;11.60;1.00
10536;DHT22;5316;49.538;8.352;2024-03-06T11:51:19;11.60;1.00
10536;DHT22;5316;49.538;8.352;2024-03-06T11:53:46;11.60;1.00
10536;DHT22;5316;49.538;8.352;2024-03-06T11:56:17;11.70;1.00
10536;DHT22;5316;49.538;8.352;2024-03-06T11:58:44;11.80;1.00
10536;DHT22;5316;49.538;8.352;2024-03-06T12:01:11;11.80;1.00
10536;DHT22;5316;49.538;8.352;2024-03-06T12:03:38;11.90;1.00
10536;DHT22;5316;49.538;8.352;2024-03-06T12:06:05;11.90;1.00
10536;DHT22;5316;49.538;8.352;2024-03-06T12:08:33;12.00;99.90
10536;DHT22;5316;49.538;8.352;2024-03-06T12:11:02;12.00;1.00
10536;DHT22;5316;49.538;8.352;2024-03-06T12:13:31;12.00;99.90
10536;DHT22;5316;49.538;8.352;2024-03-06T12:15:58;12.00;99.90
10536;DHT22;5316;49.538;8.352;2024-03-06T12:18:24;12.10;99.90
10536;DHT22;5316;49.538;8.352;2024-03-06T12:20:51;12.20;99.90
10536;DHT22;5316;49.538;8.352;2024-03-06T12:23:21;12.20;99.90
10536;DHT22;5316;49.538;8.352;2024-03-06T12:25:48;12.20;99.90
10536;DHT22;5316;49.538;8.352;2024-03-06T12:28:15;12.30;99.90
10536;DHT22;5316;49.538;8.352;2024-03-06T12:30:44;12.30;99.90
10536;DHT22;5316;49.538;8.352;2024-03-06T12:33:16;12.30;99.90
10536;DHT22;5316;49.538;8.352;2024-03-06T12:35:43;12.40;99.90
10536;DHT22;5316;49.538;8.352;2024-03-06T12:38:13;12.40;74.50
10536;DHT22;5316;49.538;8.352;2024-03-06T12:40:41;12.50;60.10
10536;DHT22;5316;49.538;8.352;2024-03-06T12:43:08;12.30;99.90
10536;DHT22;5316;49.538;8.352;2024-03-06T12:45:35;12.30;99.90
10536;DHT22;5316;49.538;8.352;2024-03-06T12:48:04;12.30;99.90
10536;DHT22;5316;49.538;8.352;2024-03-06T12:50:32;12.30;90.00
10536;DHT22;5316;49.538;8.352;2024-03-06T12:52:59;12.40;98.10
10536;DHT22;5316;49.538;8.352;2024-03-06T12:55:26;12.40;50.10
10536;DHT22;5316;49.538;8.352;2024-03-06T12:57:53;12.40;1.00
10536;DHT22;5316;49.538;8.352;2024-03-06T13:00:20;12.30;1.00
10536;DHT22;5316;49.538;8.352;2024-03-06T13:02:46;12.30;25.80
10536;DHT22;5316;49.538;8.352;2024-03-06T13:05:15;12.30;99.90
10536;DHT22;5316;49.538;8.352;2024-03-06T13:07:42;12.20;99.90
10536;DHT22;5316;49.538;8.352;2024-03-06T13:10:10;12.20;99.90
10536;DHT22;5316;49.538;8.352;2024-03-06T13:12:37;12.20;89.90
10536;DHT22;5316;49.538;8.352;2024-03-06T13:15:04;12.20;99.90
10536;DHT22;5316;49.538;8.352;2024-03-06T13:17:33;12.20;99.90
10536;DHT22;5316;49.538;8.352;2024-03-06T13:19:59;12.30;99.90
10536;DHT22;5316;49.538;8.352;2024-03-06T13:22:28;12.40;99.90
10536;DHT22;5316;49.538;8.352;2024-03-06T13:24:55;12.50;99.90
10536;DHT22;5316;49.538;8.352;2024-03-06T13:27:23;12.60;99.90
10536;DHT22;5316;49.538;8.352;2024-03-06T13:29:50;12.60;99.90
10536;DHT22;5316;49.538;8.352;2024-03-06T13:32:17;12.60;99.90
10536;DHT22;5316;49.538;8.352;2024-03-06T13:34:44;12.70;99.90
10536;DHT22;5316;49.538;8.352;2024-03-06T13:37:12;12.70;94.80
10536;DHT22;5316;49.538;8.352;2024-03-06T13:39:40;12.60;99.90
10536;DHT22;5316;49.538;8.352;2024-03-06T13:42:07;12.60;99.90
10536;DHT22;5316;49.538;8.352;2024-03-06T13:44:35;12.50;99.90
10536;DHT22;5316;49.538;8.352;2024-03-06T13:47:02;12.50;99.90
10536;DHT22;5316;49.538;8.352;2024-03-06T13:49:37;12.40;99.90
10536;DHT22;5316;49.538;8.352;2024-03-06T13:52:05;12.30;99.90
10536;DHT22;5316;49.538;8.352;2024-03-06T13:54:32;12.30;99.90
10536;DHT22;5316;49.538;8.352;2024-03-06T13:57:01;12.20;99.90
10536;DHT22;5316;49.538;8.352;2024-03-06T13:59:28;12.10;99.90
10536;DHT22;5316;49.538;8.352;2024-03-06T14:01:55;12.10;99.90
10536;DHT22;5316;49.538;8.352;2024-03-06T14:04:22;12.10;99.90
10536;DHT22;5316;49.538;8.352;2024-03-06T14:06:49;12.00;99.90
10536;DHT22;5316;49.538;8.352;2024-03-06T14:09:16;12.00;99.90
10536;DHT22;5316;49.538;8.352;2024-03-06T14:11:43;12.00;99.90
10536;DHT22;5316;49.538;8.352;2024-03-06T14:14:11;11.90;99.90
10536;DHT22;5316;49.538;8.352;2024-03-06T14:16:39;11.90;99.90
10536;DHT22;5316;49.538;8.352;2024-03-06T14:19:06;11.80;99.90
10536;DHT22;5316;49.538;8.352;2024-03-06T14:21:33;11.80;99.90
10536;DHT22;5316;49.538;8.352;2024-03-06T14:24:00;11.80;99.90
10536;DHT22;5316;49.538;8.352;2024-03-06T14:26:29;11.80;99.90
10536;DHT22;5316;49.538;8.352;2024-03-06T14:28:56;11.80;99.90
10536;DHT22;5316;49.538;8.352;2024-03-06T14:31:24;11.80;99.90
10536;DHT22;5316;49.538;8.352;2024-03-06T14:33:51;11.80;99.90
10536;DHT22;5316;49.538;8.352;2024-03-06T14:36:18;11.80;1.00
10536;DHT22;5316;49.538;8.352;2024-03-06T14:38:47;11.80;1.00
10536;DHT22;5316;49.538;8.352;2024-03-06T14:41:14;11.80;1.00
10536;DHT22;5316;49.538;8.352;2024-03-06T14:43:41;11.70;1.00
10536;DHT22;5316;49.538;8.352;2024-03-06T14:46:08;11.70;1.00
10536;DHT22;5316;49.538;8.352;2024-03-06T14:48:38;11.70;1.00
10536;DHT22;5316;49.538;8.352;2024-03-06T14:51:06;11.80;1.00
10536;DHT22;5316;49.538;8.352;2024-03-06T14:53:32;11.80;1.00
10536;DHT22;5316;49.538;8.352;2024-03-06T14:55:59;11.80;1.00
10536;DHT22;5316;49.538;8.352;2024-03-06T14:58:26;11.80;1.00
10536;DHT22;5316;49.538;8.352;2024-03-06T15:00:53;11.90;1.00
10536;DHT22;5316;49.538;8.352;2024-03-06T15:03:20;11.90;99.90
10536;DHT22;5316;49.538;8.352;2024-03-06T15:05:48;11.90;99.90
10536;DHT22;5316;49.538;8.352;2024-03-06T15:08:15;11.90;99.90
10536;DHT22;5316;49.538;8.352;2024-03-06T15:10:42;11.90;99.90
10536;DHT22;5316;49.538;8.352;2024-03-06T15:13:09;12.00;99.90
10536;DHT22;5316;49.538;8.352;2024-03-06T15:15:38;12.00;99.90
10536;DHT22;5316;49.538;8.352;2024-03-06T15:18:06;12.00;99.90
10536;DHT22;5316;49.538;8.352;2024-03-06T15:20:33;12.00;99.90
10536;DHT22;5316;49.538;8.352;2024-03-06T15:23:01;12.00;99.90
10536;DHT22;5316;49.538;8.352;2024-03-06T15:25:28;12.00;99.90
10536;DHT22;5316;49.538;8.352;2024-03-06T15:27:55;12.00;99.90
10536;DHT22;5316;49.538;8.352;2024-03-06T15:30:22;12.00;99.90
10536;DHT22;5316;49.538;8.352;2024-03-06T15:32:49;11.90;99.90
10536;DHT22;5316;49.538;8.352;2024-03-06T15:35:16;11.90;99.90
10536;DHT22;5316;49.538;8.352;2024-03-06T15:37:43;11.90;99.90
10536;DHT22;5316;49.538;8.352;2024-03-06T15:40:11;11.90;99.90
10536;DHT22;5316;49.538;8.352;2024-03-06T15:42:38;11.90;99.90
10536;DHT22;5316;49.538;8.352;2024-03-06T15:45:06;11.90;99.90
10536;DHT22;5316;49.538;8.352;2024-03-06T15:47:33;11.90;99.90
10536;DHT22;5316;49.538;8.352;2024-03-06T15:50:02;11.90;99.90
10536;DHT22;5316;49.538;8.352;2024-03-06T15:52:29;11.90;99.90
10536;DHT22;5316;49.538;8.352;2024-03-06T15:54:56;11.90;99.90
10536;DHT22;5316;49.538;8.352;2024-03-06T15:57:24;11.90;1.00
10536;DHT22;5316;49.538;8.352;2024-03-06T15:59:51;11.90;1.00
10536;DHT22;5316;49.538;8.352;2024-03-06T16:02:18;11.90;1.00